sensor_id;sensor_type;location;lat;lon;timestamp;P1;durP1;ratioP1;P2;durP2;ratioP2
31095;SDS011;17749;51.962;8.560;2023-05-07T05:02:48;32.28;;;18.73;;
31095;SDS011;17749;51.962;8.560;2023-05-07T05:05:18;27.35;;;19.48;;
31095;SDS011;17749;51.962;8.560;2023-05-07T05:07:48;30.92;;;19.10;;
31095;SDS011;17749;51.962;8.560;2023-05-07T05:10:15;28.02;;;18.92;;
31095;SDS011;17749;51.962;8.560;2023-05-07T05:12:43;25.38;;;18.70;;
31095;SDS011;17749;51.962;8.560;2023-05-07T05:15:11;28.02;;;18.88;;
31095;SDS011;17749;51.962;8.560;2023-05-07T05:17:39;27.48;;;18.38;;
31095;SDS011;17749;51.962;8.560;2023-05-07T05:20:07;27.65;;;19.70;;
31095;SDS011;17749;51.962;8.560;2023-05-07T05:22:38;30.30;;;19.10;;
31095;SDS011;17749;51.962;8.560;2023-05-07T05:25:06;27.35;;;20.00;;
31095;SDS011;17749;51.962;8.560;2023-05-07T05:27:34;32.40;;;20.98;;
31095;SDS011;17749;51.962;8.560;2023-05-07T05:30:03;32.60;;;20.15;;
31095;SDS011;17749;51.962;8.560;2023-05-07T05:32:33;30.90;;;20.15;;
31095;SDS011;17749;51.962;8.560;2023-05-07T05:35:00;28.92;;;18.73;;
31095;SDS011;17749;51.962;8.560;2023-05-07T05:37:29;29.85;;;19.73;;
31095;SDS011;17749;51.962;8.560;2023-05-07T05:40:00;30.65;;;20.92;;
31095;SDS011;17749;51.962;8.560;2023-05-07T05:42:28;31.02;;;19.27;;
31095;SDS011;17749;51.962;8.560;2023-05-07T05:44:55;28.65;;;19.75;;
31095;SDS011;17749;51.962;8.560;2023-05-07T05:47:23;32.10;;;19.92;;
31095;SDS011;17749;51.962;8.560;2023-05-07T05:49:53;26.55;;;19.77;;
31095;SDS011;17749;51.962;8.560;2023-05-07T05:52:20;28.83;;;19.27;;
31095;SDS011;17749;51.962;8.560;2023-05-07T05:54:51;27.98;;;19.73;;
31095;SDS011;17749;51.962;8.560;2023-05-07T05:57:18;28.02;;;18.73;;
31095;SDS011;17749;51.962;8.560;2023-05-07T05:59:46;30.80;;;19.23;;
31095;SDS011;17749;51.962;8.560;2023-05-07T06:02:14;25.98;;;18.08;;
31095;SDS011;17749;51.962;8.560;2023-05-07T06:04:41;26.80;;;19.00;;
31095;SDS011;17749;51.962;8.560;2023-05-07T06:07:12;25.92;;;17.85;;
31095;SDS011;17749;51.962;8.560;2023-05-07T06:09:40;27.10;;;18.00;;
31095;SDS011;17749;51.962;8.560;2023-05-07T06:12:07;25.77;;;18.70;;
31095;SDS011;17749;51.962;8.560;2023-05-07T06:14:35;28.65;;;17.30;;
31095;SDS011;17749;51.962;8.560;2023-05-07T06:17:02;26.73;;;17.38;;
31095;SDS011;17749;51.962;8.560;2023-05-07T06:19:29;25.30;;;17.48;;
31095;SDS011;17749;51.962;8.560;2023-05-07T06:21:57;28.70;;;19.17;;
31095;SDS011;17749;51.962;8.560;2023-05-07T06:24:27;25.35;;;16.80;;
31095;SDS011;17749;51.962;8.560;2023-05-07T06:26:54;29.10;;;18.02;;
31095;SDS011;17749;51.962;8.560;2023-05-07T06:29:22;25.65;;;17.35;;
31095;SDS011;17749;51.962;8.560;2023-05-07T06:31:49;25.75;;;17.17;;
31095;SDS011;17749;51.962;8.560;2023-05-07T06:34:16;25.48;;;17.30;;
31095;SDS011;17749;51.962;8.560;2023-05-07T06:36:43;27.23;;;17.42;;
31095;SDS011;17749;51.962;8.560;2023-05-07T06:41:51;23.92;;;15.00;;
31095;SDS011;17749;51.962;8.560;2023-05-07T06:44:25;25.02;;;16.23;;
31095;SDS011;17749;51.962;8.560;2023-05-07T06:47:03;24.65;;;17.17;;
31095;SDS011;17749;51.962;8.560;2023-05-07T06:49:30;23.75;;;14.77;;
31095;SDS011;17749;51.962;8.560;2023-05-07T06:51:58;23.35;;;15.38;;
31095;SDS011;17749;51.962;8.560;2023-05-07T06:54:25;20.25;;;14.95;;
31095;SDS011;17749;51.962;8.560;2023-05-07T06:56:52;22.52;;;15.10;;
31095;SDS011;17749;51.962;8.560;2023-05-07T06:59:19;21.85;;;14.93;;
31095;SDS011;17749;51.962;8.560;2023-05-07T07:01:46;24.08;;;15.60;;
31095;SDS011;17749;51.962;8.560;2023-05-07T07:04:13;20.30;;;13.48;;
31095;SDS011;17749;51.962;8.560;2023-05-07T07:06:43;20.67;;;14.02;;
31095;SDS011;17749;51.962;8.560;2023-05-07T07:09:12;21.98;;;13.98;;
31095;SDS011;17749;51.962;8.560;2023-05-07T07:11:39;19.73;;;14.35;;
31095;SDS011;17749;51.962;8.560;2023-05-07T07:14:08;22.33;;;13.60;;
31095;SDS011;17749;51.962;8.560;2023-05-07T07:16:41;21.67;;;14.77;;
31095;SDS011;17749;51.962;8.560;2023-05-07T07:19:08;18.70;;;13.57;;
31095;SDS011;17749;51.962;8.560;2023-05-07T07:21:35;22.15;;;14.25;;
31095;SDS011;17749;51.962;8.560;2023-05-07T07:24:02;18.52;;;13.30;;
31095;SDS011;17749;51.962;8.560;2023-05-07T07:26:30;23.95;;;12.77;;
31095;SDS011;17749;51.962;8.560;2023-05-07T07:28:57;19.55;;;12.98;;
31095;SDS011;17749;51.962;8.560;2023-05-07T07:31:25;17.10;;;12.43;;
31095;SDS011;17749;51.962;8.560;2023-05-07T07:33:52;18.92;;;13.18;;
31095;SDS011;17749;51.962;8.560;2023-05-07T07:36:19;18.90;;;11.90;;
31095;SDS011;17749;51.962;8.560;2023-05-07T07:41:17;18.27;;;12.20;;
31095;SDS011;17749;51.962;8.560;2023-05-07T07:43:44;18.20;;;12.82;;
31095;SDS011;17749;51.962;8.560;2023-05-07T07:46:18;15.93;;;11.65;;
31095;SDS011;17749;51.962;8.560;2023-05-07T07:48:45;14.20;;;10.77;;
31095;SDS011;17749;51.962;8.560;2023-05-07T07:51:11;18.42;;;11.80;;
31095;SDS011;17749;51.962;8.560;2023-05-07T07:53:39;14.88;;;10.90;;
31095;SDS011;17749;51.962;8.560;2023-05-07T07:56:07;14.93;;;11.55;;
31095;SDS011;17749;51.962;8.560;2023-05-07T07:58:34;16.45;;;11.32;;
31095;SDS011;17749;51.962;8.560;2023-05-07T08:01:03;17.48;;;10.95;;
31095;SDS011;17749;51.962;8.560;2023-05-07T08:03:30;16.20;;;10.27;;
31095;SDS011;17749;51.962;8.560;2023-05-07T08:06:00;14.23;;;9.45;;
31095;SDS011;17749;51.962;8.560;2023-05-07T08:08:28;14.52;;;10.43;;
31095;SDS011;17749;51.962;8.560;2023-05-07T08:10:56;14.27;;;9.93;;
31095;SDS011;17749;51.962;8.560;2023-05-07T08:13:28;15.02;;;10.68;;
31095;SDS011;17749;51.962;8.560;2023-05-07T08:15:56;14.48;;;10.30;;
31095;SDS011;17749;51.962;8.560;2023-05-07T08:18:24;12.82;;;10.00;;
31095;SDS011;17749;51.962;8.560;2023-05-07T08:20:53;12.52;;;9.63;;
31095;SDS011;17749;51.962;8.560;2023-05-07T08:25:49;13.15;;;9.75;;
31095;SDS011;17749;51.962;8.560;2023-05-07T08:28:18;14.63;;;10.73;;
31095;SDS011;17749;51.962;8.560;2023-05-07T08:30:48;13.98;;;10.18;;
31095;SDS011;17749;51.962;8.560;2023-05-07T08:33:15;13.65;;;9.63;;
31095;SDS011;17749;51.962;8.560;2023-05-07T08:35:41;15.35;;;10.07;;
31095;SDS011;17749;51.962;8.560;2023-05-07T08:38:10;14.18;;;9.65;;
31095;SDS011;17749;51.962;8.560;2023-05-07T08:40:38;12.88;;;9.55;;
31095;SDS011;17749;51.962;8.560;2023-05-07T08:43:13;10.75;;;8.32;;
31095;SDS011;17749;51.962;8.560;2023-05-07T08:45:42;10.48;;;8.13;;
31095;SDS011;17749;51.962;8.560;2023-05-07T08:48:14;10.75;;;8.20;;
31095;SDS011;17749;51.962;8.560;2023-05-07T08:50:49;10.82;;;8.27;;
31095;SDS011;17749;51.962;8.560;2023-05-07T08:53:16;10.00;;;7.50;;
31095;SDS011;17749;51.962;8.560;2023-05-07T08:55:45;15.10;;;9.07;;
31095;SDS011;17749;51.962;8.560;2023-05-07T08:58:14;12.68;;;9.15;;
31095;SDS011;17749;51.962;8.560;2023-05-07T09:00:42;12.10;;;8.98;;
31095;SDS011;17749;51.962;8.560;2023-05-07T09:03:10;13.35;;;9.15;;
31095;SDS011;17749;51.962;8.560;2023-05-07T09:05:43;12.32;;;7.97;;
31095;SDS011;17749;51.962;8.560;2023-05-07T09:08:14;12.50;;;8.35;;
31095;SDS011;17749;51.962;8.560;2023-05-07T09:10:47;11.38;;;8.55;;
31095;SDS011;17749;51.962;8.560;2023-05-07T09:13:16;11.48;;;8.30;;
31095;SDS011;17749;51.962;8.560;2023-05-07T09:15:45;10.55;;;8.02;;
31095;SDS011;17749;51.962;8.560;2023-05-07T09:18:13;12.13;;;8.70;;
31095;SDS011;17749;51.962;8.560;2023-05-07T09:20:44;11.85;;;8.10;;
31095;SDS011;17749;51.962;8.560;2023-05-07T09:23:12;10.93;;;7.78;;
31095;SDS011;17749;51.962;8.560;2023-05-07T09:25:39;12.07;;;8.10;;
31095;SDS011;17749;51.962;8.560;2023-05-07T09:28:13;12.07;;;7.00;;
31095;SDS011;17749;51.962;8.560;2023-05-07T09:30:40;10.98;;;7.97;;
31095;SDS011;17749;51.962;8.560;2023-05-07T09:35:40;10.85;;;7.05;;
31095;SDS011;17749;51.962;8.560;2023-05-07T09:38:12;8.10;;;6.57;;
31095;SDS011;17749;51.962;8.560;2023-05-07T09:40:40;10.35;;;7.50;;
31095;SDS011;17749;51.962;8.560;2023-05-07T09:43:12;11.90;;;8.10;;
31095;SDS011;17749;51.962;8.560;2023-05-07T09:45:55;9.02;;;7.18;;
31095;SDS011;17749;51.962;8.560;2023-05-07T09:48:25;9.93;;;7.57;;
31095;SDS011;17749;51.962;8.560;2023-05-07T09:50:55;8.73;;;6.93;;
31095;SDS011;17749;51.962;8.560;2023-05-07T09:53:29;11.15;;;7.00;;
31095;SDS011;17749;51.962;8.560;2023-05-07T09:56:00;8.40;;;6.68;;
31095;SDS011;17749;51.962;8.560;2023-05-07T09:58:30;8.30;;;6.57;;
31095;SDS011;17749;51.962;8.560;2023-05-07T10:00:59;8.95;;;6.28;;
31095;SDS011;17749;51.962;8.560;2023-05-07T10:03:28;8.70;;;6.47;;
31095;SDS011;17749;51.962;8.560;2023-05-07T10:06:03;9.57;;;7.53;;
31095;SDS011;17749;51.962;8.560;2023-05-07T10:08:32;9.52;;;6.72;;
31095;SDS011;17749;51.962;8.560;2023-05-07T10:11:01;8.98;;;6.43;;
31095;SDS011;17749;51.962;8.560;2023-05-07T10:13:30;8.38;;;6.43;;
31095;SDS011;17749;51.962;8.560;2023-05-07T10:15:58;8.13;;;6.43;;
31095;SDS011;17749;51.962;8.560;2023-05-07T10:18:32;8.45;;;6.82;;
31095;SDS011;17749;51.962;8.560;2023-05-07T10:23:46;10.60;;;7.40;;
31095;SDS011;17749;51.962;8.560;2023-05-07T10:26:20;8.27;;;6.57;;
31095;SDS011;17749;51.962;8.560;2023-05-07T10:28:50;8.32;;;6.00;;
31095;SDS011;17749;51.962;8.560;2023-05-07T10:34:13;7.93;;;5.82;;
31095;SDS011;17749;51.962;8.560;2023-05-07T10:36:45;8.07;;;5.80;;
31095;SDS011;17749;51.962;8.560;2023-05-07T10:39:13;6.95;;;5.68;;
31095;SDS011;17749;51.962;8.560;2023-05-07T10:41:40;8.40;;;6.40;;
31095;SDS011;17749;51.962;8.560;2023-05-07T10:44:09;9.45;;;6.28;;
31095;SDS011;17749;51.962;8.560;2023-05-07T10:46:36;6.97;;;5.20;;
31095;SDS011;17749;51.962;8.560;2023-05-07T10:49:12;7.22;;;5.30;;
31095;SDS011;17749;51.962;8.560;2023-05-07T10:52:21;7.40;;;5.18;;
31095;SDS011;17749;51.962;8.560;2023-05-07T10:57:52;11.15;;;5.70;;
31095;SDS011;17749;51.962;8.560;2023-05-07T11:03:10;8.38;;;5.13;;
31095;SDS011;17749;51.962;8.560;2023-05-07T11:06:08;6.15;;;4.95;;
31095;SDS011;17749;51.962;8.560;2023-05-07T11:08:53;7.38;;;6.05;;
31095;SDS011;17749;51.962;8.560;2023-05-07T11:17:12;6.93;;;5.28;;
31095;SDS011;17749;51.962;8.560;2023-05-07T11:19:51;5.85;;;4.53;;
31095;SDS011;17749;51.962;8.560;2023-05-07T11:25:09;5.57;;;4.43;;
31095;SDS011;17749;51.962;8.560;2023-05-07T11:27:37;6.47;;;4.55;;
31095;SDS011;17749;51.962;8.560;2023-05-07T11:30:04;6.07;;;4.43;;
31095;SDS011;17749;51.962;8.560;2023-05-07T11:32:31;5.65;;;4.50;;
31095;SDS011;17749;51.962;8.560;2023-05-07T11:35:00;7.18;;;4.90;;
31095;SDS011;17749;51.962;8.560;2023-05-07T11:37:27;7.25;;;5.07;;
31095;SDS011;17749;51.962;8.560;2023-05-07T11:40:06;5.43;;;3.95;;
31095;SDS011;17749;51.962;8.560;2023-05-07T11:42:38;7.45;;;4.25;;
31095;SDS011;17749;51.962;8.560;2023-05-07T11:45:06;6.88;;;3.90;;
31095;SDS011;17749;51.962;8.560;2023-05-07T11:47:33;6.78;;;4.28;;
31095;SDS011;17749;51.962;8.560;2023-05-07T11:50:05;5.47;;;4.65;;
31095;SDS011;17749;51.962;8.560;2023-05-07T11:52:34;6.63;;;4.68;;
31095;SDS011;17749;51.962;8.560;2023-05-07T11:55:02;8.25;;;5.03;;
31095;SDS011;17749;51.962;8.560;2023-05-07T11:57:32;6.80;;;4.50;;
31095;SDS011;17749;51.962;8.560;2023-05-07T12:00:00;5.35;;;4.18;;
31095;SDS011;17749;51.962;8.560;2023-05-07T12:02:40;6.72;;;4.50;;
31095;SDS011;17749;51.962;8.560;2023-05-07T12:05:08;7.30;;;4.90;;
31095;SDS011;17749;51.962;8.560;2023-05-07T12:07:36;5.05;;;4.07;;
31095;SDS011;17749;51.962;8.560;2023-05-07T12:10:06;5.90;;;4.68;;
31095;SDS011;17749;51.962;8.560;2023-05-07T12:12:45;6.97;;;4.38;;
31095;SDS011;17749;51.962;8.560;2023-05-07T12:15:22;7.63;;;5.07;;
31095;SDS011;17749;51.962;8.560;2023-05-07T12:17:52;5.25;;;4.30;;
31095;SDS011;17749;51.962;8.560;2023-05-07T12:20:23;6.15;;;4.45;;
31095;SDS011;17749;51.962;8.560;2023-05-07T12:22:50;7.40;;;4.85;;
31095;SDS011;17749;51.962;8.560;2023-05-07T12:25:19;5.97;;;4.50;;
31095;SDS011;17749;51.962;8.560;2023-05-07T12:27:51;5.32;;;4.28;;
31095;SDS011;17749;51.962;8.560;2023-05-07T12:30:18;7.45;;;4.43;;
31095;SDS011;17749;51.962;8.560;2023-05-07T12:32:45;4.93;;;3.67;;
31095;SDS011;17749;51.962;8.560;2023-05-07T12:35:12;6.43;;;4.07;;
31095;SDS011;17749;51.962;8.560;2023-05-07T12:37:39;5.65;;;4.18;;
31095;SDS011;17749;51.962;8.560;2023-05-07T12:40:08;7.13;;;4.07;;
31095;SDS011;17749;51.962;8.560;2023-05-07T12:42:37;4.85;;;3.72;;
31095;SDS011;17749;51.962;8.560;2023-05-07T12:45:10;7.53;;;4.00;;
31095;SDS011;17749;51.962;8.560;2023-05-07T12:47:38;8.27;;;3.88;;
31095;SDS011;17749;51.962;8.560;2023-05-07T12:50:06;5.20;;;3.90;;
31095;SDS011;17749;51.962;8.560;2023-05-07T12:52:33;4.70;;;4.18;;
31095;SDS011;17749;51.962;8.560;2023-05-07T12:55:04;7.65;;;4.47;;
31095;SDS011;17749;51.962;8.560;2023-05-07T12:57:43;5.85;;;3.92;;
31095;SDS011;17749;51.962;8.560;2023-05-07T13:00:15;5.68;;;3.60;;
31095;SDS011;17749;51.962;8.560;2023-05-07T13:02:43;4.82;;;3.85;;
31095;SDS011;17749;51.962;8.560;2023-05-07T13:05:11;5.68;;;3.92;;
31095;SDS011;17749;51.962;8.560;2023-05-07T13:07:39;6.13;;;3.58;;
31095;SDS011;17749;51.962;8.560;2023-05-07T13:10:07;4.88;;;3.47;;
31095;SDS011;17749;51.962;8.560;2023-05-07T13:12:34;5.97;;;3.97;;
31095;SDS011;17749;51.962;8.560;2023-05-07T13:15:02;4.28;;;3.42;;
31095;SDS011;17749;51.962;8.560;2023-05-07T13:17:29;5.18;;;4.13;;
31095;SDS011;17749;51.962;8.560;2023-05-07T13:19:58;6.07;;;3.83;;
31095;SDS011;17749;51.962;8.560;2023-05-07T13:22:25;4.93;;;3.30;;
31095;SDS011;17749;51.962;8.560;2023-05-07T13:24:52;5.35;;;3.85;;
31095;SDS011;17749;51.962;8.560;2023-05-07T13:27:18;5.63;;;4.10;;
31095;SDS011;17749;51.962;8.560;2023-05-07T13:29:46;4.05;;;3.25;;
31095;SDS011;17749;51.962;8.560;2023-05-07T13:32:13;5.43;;;3.40;;
31095;SDS011;17749;51.962;8.560;2023-05-07T13:34:40;6.65;;;4.00;;
31095;SDS011;17749;51.962;8.560;2023-05-07T13:37:07;8.95;;;5.60;;
31095;SDS011;17749;51.962;8.560;2023-05-07T13:39:36;7.15;;;5.22;;
31095;SDS011;17749;51.962;8.560;2023-05-07T13:42:03;6.25;;;4.40;;
31095;SDS011;17749;51.962;8.560;2023-05-07T13:44:31;8.13;;;5.75;;
31095;SDS011;17749;51.962;8.560;2023-05-07T13:46:57;6.65;;;4.90;;
31095;SDS011;17749;51.962;8.560;2023-05-07T13:49:24;6.35;;;4.45;;
31095;SDS011;17749;51.962;8.560;2023-05-07T13:51:51;7.47;;;5.32;;
31095;SDS011;17749;51.962;8.560;2023-05-07T13:54:18;6.15;;;5.30;;
31095;SDS011;17749;51.962;8.560;2023-05-07T13:56:45;6.10;;;5.38;;
31095;SDS011;17749;51.962;8.560;2023-05-07T13:59:12;9.63;;;6.22;;
31095;SDS011;17749;51.962;8.560;2023-05-07T14:01:41;7.50;;;6.07;;
31095;SDS011;17749;51.962;8.560;2023-05-07T14:04:08;7.40;;;5.45;;
31095;SDS011;17749;51.962;8.560;2023-05-07T14:06:34;6.55;;;4.75;;
31095;SDS011;17749;51.962;8.560;2023-05-07T14:09:01;8.85;;;5.70;;
31095;SDS011;17749;51.962;8.560;2023-05-07T14:11:29;9.75;;;5.82;;
31095;SDS011;17749;51.962;8.560;2023-05-07T14:13:57;8.48;;;6.03;;
31095;SDS011;17749;51.962;8.560;2023-05-07T14:16:24;8.80;;;6.95;;
31095;SDS011;17749;51.962;8.560;2023-05-07T14:18:52;9.25;;;6.07;;
31095;SDS011;17749;51.962;8.560;2023-05-07T14:21:23;7.80;;;6.80;;
31095;SDS011;17749;51.962;8.560;2023-05-07T14:23:51;11.95;;;7.40;;
31095;SDS011;17749;51.962;8.560;2023-05-07T14:26:17;10.43;;;6.90;;
31095;SDS011;17749;51.962;8.560;2023-05-07T14:28:45;10.35;;;7.18;;
31095;SDS011;17749;51.962;8.560;2023-05-07T14:31:13;8.27;;;6.60;;
31095;SDS011;17749;51.962;8.560;2023-05-07T14:33:40;8.90;;;7.10;;
31095;SDS011;17749;51.962;8.560;2023-05-07T14:36:08;10.10;;;7.80;;
31095;SDS011;17749;51.962;8.560;2023-05-07T14:38:35;11.23;;;7.53;;
31095;SDS011;17749;51.962;8.560;2023-05-07T14:41:02;10.60;;;7.78;;
31095;SDS011;17749;51.962;8.560;2023-05-07T14:43:28;9.00;;;6.95;;
31095;SDS011;17749;51.962;8.560;2023-05-07T14:45:56;9.93;;;8.13;;
31095;SDS011;17749;51.962;8.560;2023-05-07T14:48:22;11.32;;;7.93;;
31095;SDS011;17749;51.962;8.560;2023-05-07T14:50:49;8.50;;;6.57;;
31095;SDS011;17749;51.962;8.560;2023-05-07T14:53:16;9.43;;;7.43;;
31095;SDS011;17749;51.962;8.560;2023-05-07T14:55:43;10.20;;;8.07;;
31095;SDS011;17749;51.962;8.560;2023-05-07T14:58:11;9.38;;;7.63;;
31095;SDS011;17749;51.962;8.560;2023-05-07T15:00:38;9.18;;;7.10;;
31095;SDS011;17749;51.962;8.560;2023-05-07T15:03:06;10.00;;;7.95;;
31095;SDS011;17749;51.962;8.560;2023-05-07T15:05:35;10.15;;;7.28;;
31095;SDS011;17749;51.962;8.560;2023-05-07T15:08:02;10.57;;;7.63;;
31095;SDS011;17749;51.962;8.560;2023-05-07T15:10:29;12.43;;;8.10;;
31095;SDS011;17749;51.962;8.560;2023-05-07T15:12:56;10.98;;;8.50;;
31095;SDS011;17749;51.962;8.560;2023-05-07T15:15:23;12.60;;;9.10;;
31095;SDS011;17749;51.962;8.560;2023-05-07T15:17:52;14.05;;;8.30;;
31095;SDS011;17749;51.962;8.560;2023-05-07T15:20:19;10.63;;;7.63;;
31095;SDS011;17749;51.962;8.560;2023-05-07T15:22:46;10.27;;;7.63;;
31095;SDS011;17749;51.962;8.560;2023-05-07T15:25:13;9.82;;;7.68;;
31095;SDS011;17749;51.962;8.560;2023-05-07T15:27:40;12.30;;;9.10;;
31095;SDS011;17749;51.962;8.560;2023-05-07T15:30:07;12.68;;;8.00;;
31095;SDS011;17749;51.962;8.560;2023-05-07T15:32:37;14.95;;;8.93;;
31095;SDS011;17749;51.962;8.560;2023-05-07T15:35:05;12.77;;;8.63;;
31095;SDS011;17749;51.962;8.560;2023-05-07T15:37:32;10.10;;;8.00;;
31095;SDS011;17749;51.962;8.560;2023-05-07T15:39:59;11.10;;;8.32;;
31095;SDS011;17749;51.962;8.560;2023-05-07T15:42:28;12.13;;;8.50;;
31095;SDS011;17749;51.962;8.560;2023-05-07T15:44:56;9.88;;;7.65;;
31095;SDS011;17749;51.962;8.560;2023-05-07T15:47:23;12.52;;;9.05;;
31095;SDS011;17749;51.962;8.560;2023-05-07T15:49:50;11.18;;;8.85;;
31095;SDS011;17749;51.962;8.560;2023-05-07T15:52:17;13.05;;;9.75;;
31095;SDS011;17749;51.962;8.560;2023-05-07T15:54:44;16.95;;;11.68;;
31095;SDS011;17749;51.962;8.560;2023-05-07T15:57:11;13.93;;;10.45;;
31095;SDS011;17749;51.962;8.560;2023-05-07T15:59:38;10.48;;;8.13;;
31095;SDS011;17749;51.962;8.560;2023-05-07T16:02:05;11.77;;;9.38;;
31095;SDS011;17749;51.962;8.560;2023-05-07T16:04:33;12.05;;;8.30;;
31095;SDS011;17749;51.962;8.560;2023-05-07T16:07:00;10.88;;;8.57;;
31095;SDS011;17749;51.962;8.560;2023-05-07T16:09:27;9.45;;;7.35;;
31095;SDS011;17749;51.962;8.560;2023-05-07T16:11:54;12.45;;;8.77;;
31095;SDS011;17749;51.962;8.560;2023-05-07T16:14:22;16.90;;;9.40;;
31095;SDS011;17749;51.962;8.560;2023-05-07T16:16:49;10.90;;;8.38;;
31095;SDS011;17749;51.962;8.560;2023-05-07T16:19:18;9.90;;;7.23;;
31095;SDS011;17749;51.962;8.560;2023-05-07T16:21:45;10.55;;;7.60;;
31095;SDS011;17749;51.962;8.560;2023-05-07T16:24:13;8.80;;;7.20;;
31095;SDS011;17749;51.962;8.560;2023-05-07T16:26:41;11.88;;;8.70;;
31095;SDS011;17749;51.962;8.560;2023-05-07T16:29:08;12.35;;;8.02;;
31095;SDS011;17749;51.962;8.560;2023-05-07T16:31:35;11.20;;;7.70;;
31095;SDS011;17749;51.962;8.560;2023-05-07T16:34:02;9.73;;;7.40;;
31095;SDS011;17749;51.962;8.560;2023-05-07T16:36:30;8.55;;;7.00;;
31095;SDS011;17749;51.962;8.560;2023-05-07T16:38:57;10.73;;;7.80;;
31095;SDS011;17749;51.962;8.560;2023-05-07T16:41:24;10.05;;;7.43;;
31095;SDS011;17749;51.962;8.560;2023-05-07T16:43:51;10.77;;;7.28;;
31095;SDS011;17749;51.962;8.560;2023-05-07T16:46:18;10.15;;;7.85;;
31095;SDS011;17749;51.962;8.560;2023-05-07T16:48:45;8.93;;;7.53;;
31095;SDS011;17749;51.962;8.560;2023-05-07T16:51:12;11.35;;;7.95;;
31095;SDS011;17749;51.962;8.560;2023-05-07T16:53:39;9.23;;;7.80;;
31095;SDS011;17749;51.962;8.560;2023-05-07T16:56:06;9.48;;;7.88;;
31095;SDS011;17749;51.962;8.560;2023-05-07T16:58:33;8.82;;;7.32;;
31095;SDS011;17749;51.962;8.560;2023-05-07T17:01:00;10.48;;;8.10;;
31095;SDS011;17749;51.962;8.560;2023-05-07T17:03:28;8.18;;;7.25;;
31095;SDS011;17749;51.962;8.560;2023-05-07T17:05:55;10.98;;;7.47;;
31095;SDS011;17749;51.962;8.560;2023-05-07T17:08:22;8.90;;;7.32;;
31095;SDS011;17749;51.962;8.560;2023-05-07T17:10:49;9.90;;;7.32;;
31095;SDS011;17749;51.962;8.560;2023-05-07T17:13:16;9.20;;;7.85;;
31095;SDS011;17749;51.962;8.560;2023-05-07T17:15:43;9.50;;;7.28;;
31095;SDS011;17749;51.962;8.560;2023-05-07T17:18:12;7.50;;;6.47;;
31095;SDS011;17749;51.962;8.560;2023-05-07T17:20:39;10.80;;;7.63;;
31095;SDS011;17749;51.962;8.560;2023-05-07T17:23:06;8.60;;;7.30;;
31095;SDS011;17749;51.962;8.560;2023-05-07T17:25:33;7.85;;;6.97;;
31095;SDS011;17749;51.962;8.560;2023-05-07T17:28:01;9.85;;;7.07;;
31095;SDS011;17749;51.962;8.560;2023-05-07T17:30:29;8.25;;;6.68;;
31095;SDS011;17749;51.962;8.560;2023-05-07T17:32:56;10.13;;;7.65;;
31095;SDS011;17749;51.962;8.560;2023-05-07T17:35:32;7.50;;;6.50;;
31095;SDS011;17749;51.962;8.560;2023-05-07T17:37:59;9.98;;;7.55;;
31095;SDS011;17749;51.962;8.560;2023-05-07T17:40:28;9.23;;;7.50;;
31095;SDS011;17749;51.962;8.560;2023-05-07T17:42:55;9.23;;;7.10;;
31095;SDS011;17749;51.962;8.560;2023-05-07T17:45:25;9.38;;;7.10;;
31095;SDS011;17749;51.962;8.560;2023-05-07T17:47:52;7.85;;;6.78;;
31095;SDS011;17749;51.962;8.560;2023-05-07T17:50:19;10.45;;;7.88;;
31095;SDS011;17749;51.962;8.560;2023-05-07T17:52:46;8.15;;;7.07;;
31095;SDS011;17749;51.962;8.560;2023-05-07T17:55:14;9.25;;;7.28;;
31095;SDS011;17749;51.962;8.560;2023-05-07T17:57:41;9.57;;;7.55;;
31095;SDS011;17749;51.962;8.560;2023-05-07T18:00:08;8.27;;;6.78;;
31095;SDS011;17749;51.962;8.560;2023-05-07T18:02:36;8.65;;;7.25;;
31095;SDS011;17749;51.962;8.560;2023-05-07T18:05:03;9.07;;;7.03;;
31095;SDS011;17749;51.962;8.560;2023-05-07T18:07:31;10.82;;;7.65;;
31095;SDS011;17749;51.962;8.560;2023-05-07T18:09:57;10.40;;;7.28;;
31095;SDS011;17749;51.962;8.560;2023-05-07T18:12:25;9.70;;;6.82;;
31095;SDS011;17749;51.962;8.560;2023-05-07T18:14:53;9.25;;;8.07;;
31095;SDS011;17749;51.962;8.560;2023-05-07T18:17:20;9.18;;;7.47;;
31095;SDS011;17749;51.962;8.560;2023-05-07T18:19:49;18.17;;;7.78;;
31095;SDS011;17749;51.962;8.560;2023-05-07T18:22:20;8.77;;;7.88;;
31095;SDS011;17749;51.962;8.560;2023-05-07T18:24:48;9.68;;;7.82;;
31095;SDS011;17749;51.962;8.560;2023-05-07T18:27:15;9.43;;;7.65;;
31095;SDS011;17749;51.962;8.560;2023-05-07T18:29:42;8.65;;;7.68;;
31095;SDS011;17749;51.962;8.560;2023-05-07T18:32:09;10.10;;;8.40;;
31095;SDS011;17749;51.962;8.560;2023-05-07T18:34:36;10.20;;;8.55;;
31095;SDS011;17749;51.962;8.560;2023-05-07T18:37:03;8.23;;;7.05;;
31095;SDS011;17749;51.962;8.560;2023-05-07T18:39:30;8.85;;;7.65;;
31095;SDS011;17749;51.962;8.560;2023-05-07T18:41:58;10.23;;;8.30;;
31095;SDS011;17749;51.962;8.560;2023-05-07T18:44:25;11.20;;;8.00;;
31095;SDS011;17749;51.962;8.560;2023-05-07T18:46:52;9.02;;;7.30;;
31095;SDS011;17749;51.962;8.560;2023-05-07T18:49:19;9.65;;;7.93;;
31095;SDS011;17749;51.962;8.560;2023-05-07T18:51:46;10.77;;;7.68;;
31095;SDS011;17749;51.962;8.560;2023-05-07T18:54:14;8.75;;;7.80;;
31095;SDS011;17749;51.962;8.560;2023-05-07T18:56:41;10.05;;;8.98;;
31095;SDS011;17749;51.962;8.560;2023-05-07T18:59:08;11.90;;;8.95;;
31095;SDS011;17749;51.962;8.560;2023-05-07T19:01:35;12.00;;;9.32;;
31095;SDS011;17749;51.962;8.560;2023-05-07T19:04:03;10.18;;;8.40;;
31095;SDS011;17749;51.962;8.560;2023-05-07T19:06:30;10.70;;;8.27;;
31095;SDS011;17749;51.962;8.560;2023-05-07T19:08:59;9.98;;;8.45;;
31095;SDS011;17749;51.962;8.560;2023-05-07T19:11:26;16.35;;;9.38;;
31095;SDS011;17749;51.962;8.560;2023-05-07T19:13:53;10.00;;;8.70;;
31095;SDS011;17749;51.962;8.560;2023-05-07T19:16:20;10.95;;;9.77;;
31095;SDS011;17749;51.962;8.560;2023-05-07T19:18:47;11.85;;;10.57;;
31095;SDS011;17749;51.962;8.560;2023-05-07T19:21:14;12.05;;;10.05;;
31095;SDS011;17749;51.962;8.560;2023-05-07T19:23:41;10.90;;;9.75;;
31095;SDS011;17749;51.962;8.560;2023-05-07T19:26:08;13.55;;;10.90;;
31095;SDS011;17749;51.962;8.560;2023-05-07T19:28:39;15.07;;;11.60;;
31095;SDS011;17749;51.962;8.560;2023-05-07T19:31:20;14.60;;;11.07;;
31095;SDS011;17749;51.962;8.560;2023-05-07T19:33:48;13.15;;;11.20;;
31095;SDS011;17749;51.962;8.560;2023-05-07T19:36:15;13.32;;;11.57;;
31095;SDS011;17749;51.962;8.560;2023-05-07T19:38:43;16.65;;;11.98;;
31095;SDS011;17749;51.962;8.560;2023-05-07T19:41:11;19.83;;;15.52;;
31095;SDS011;17749;51.962;8.560;2023-05-07T19:43:38;18.15;;;14.52;;
31095;SDS011;17749;51.962;8.560;2023-05-07T19:46:05;14.85;;;12.25;;
31095;SDS011;17749;51.962;8.560;2023-05-07T19:48:33;14.82;;;11.60;;
31095;SDS011;17749;51.962;8.560;2023-05-07T19:51:00;14.10;;;11.90;;
31095;SDS011;17749;51.962;8.560;2023-05-07T19:53:27;14.95;;;11.85;;
31095;SDS011;17749;51.962;8.560;2023-05-07T19:56:00;14.43;;;11.40;;
31095;SDS011;17749;51.962;8.560;2023-05-07T19:58:34;12.88;;;10.80;;
31095;SDS011;17749;51.962;8.560;2023-05-07T20:01:02;14.13;;;11.63;;
31095;SDS011;17749;51.962;8.560;2023-05-07T20:03:32;12.50;;;10.68;;
31095;SDS011;17749;51.962;8.560;2023-05-07T20:06:00;13.27;;;11.38;;
31095;SDS011;17749;51.962;8.560;2023-05-07T20:08:27;14.77;;;11.75;;
31095;SDS011;17749;51.962;8.560;2023-05-07T20:10:55;13.73;;;11.38;;
31095;SDS011;17749;51.962;8.560;2023-05-07T20:13:39;14.10;;;10.88;;
31095;SDS011;17749;51.962;8.560;2023-05-07T20:16:06;15.10;;;10.82;;